EHKV

K14-fa-1c Sea

K14-fa-1c Sea, The Netherlands
METAR EHKV 172055Z AUTO 09025KT 9999 NCD 09/05 Q1032 W///H///
Observed Flight Rules
Nov-17 @ 20:55 UTC (44 minutes ago) Visual Flight Rules
Wind Visibility Clouds
90° at 25 knots 10,000+ meters
  • Clear skies
Temperatures Readings
Current 9°C / 48°F
Dewpoint 5°C / 41°F
Humidity 76%
Altimeter 30.47" Hg
Pressure 1032 hPa
Elevation 50
METAR EHKV 172055Z AUTO 09025KT 9999 NCD 09/05 Q1032 W///H///
Observed Flight Rules
Nov-17 @ 20:55 UTC
(44 minutes ago)
VFR
Wind Visibility
90° at 25 knots 10,000+ meters
Clouds
  • Clear skies
Temperature Dewpoint
9°C / 48°F 5°C / 41°F
Humidity Altimeter Pressure
76% 30.47" Hg 1032 hPa